Terminal Aerodrome Forecast
Issued by NWS

Home | Current Version | Previous Version | Text Only | Print | Product List | Glossary On
Versions: 1 2 3 4 5 6 7 8 9 10 11 12 13 14
000
FTUS46 KOTX 242336
TAFSFF
TAF
KSFF 242336Z 2500/2524 VRB03KT P6SM SCT030 SCT050 OVC120
     FM250100 VRB03KT P6SM VCSH SCT030 BKN050 OVC100
     FM250300 VRB04KT P6SM -RA SCT025 OVC040
     FM250700 06005KT P6SM SCT040 BKN120
     FM252100 18007G13KT P6SM VCSH SCT040 BKN080 OVC120=

USA.gov is the U.S. government's official web portal to all federal, state and local government web resources and services.